Time;durP1;ratioP1;P1;durP2;ratioP2;P2;SDS_P1;SDS_P2;PMS_P1;PMS_P2;Temp;Humidity;BMP_temperature;BMP_pressure;BME280_temperature;BME280_humidity;BME280_pressure;Samples;Min_cycle;Max_cycle;Signal;HPM_P1;HPM_P2
2023/02/12 00:02:10;;;;;;;28.23;24.57;;;;;;;0.79;100.00;98822.66;5060786;28;20520;-64
2023/02/12 00:04:38;;;;;;;28.10;25.10;;;;;;;0.76;100.00;98818.44;5022018;28;20246;-65
2023/02/12 00:07:07;;;;;;;26.30;23.43;;;;;;;0.85;100.00;98820.56;5063326;28;20194;-67
2023/02/12 00:09:34;;;;;;;28.67;24.73;;;;;;;0.80;100.00;98825.19;5063355;28;20238;-66
2023/02/12 00:12:02;;;;;;;30.43;24.37;;;;;;;0.72;100.00;98814.31;5040396;28;20222;-67
2023/02/12 00:14:29;;;;;;;28.37;24.97;;;;;;;0.74;100.00;98812.47;5049042;28;20202;-64
2023/02/12 00:16:57;;;;;;;25.67;22.87;;;;;;;0.77;100.00;98811.47;5067359;28;20217;-67
2023/02/12 00:19:24;;;;;;;29.90;24.47;;;;;;;0.81;100.00;98815.59;5026507;28;20206;-65
2023/02/12 00:21:52;;;;;;;28.10;24.63;;;;;;;0.83;100.00;98814.56;5065442;28;20222;-64
2023/02/12 00:24:21;;;;;;;27.67;23.70;;;;;;;0.89;100.00;98815.16;5068985;28;20217;-64
2023/02/12 00:26:49;;;;;;;28.70;24.13;;;;;;;0.90;100.00;98814.25;5069313;28;20640;-66
2023/02/12 00:29:17;;;;;;;28.20;24.50;;;;;;;0.92;100.00;98813.25;5050676;28;20213;-64
2023/02/12 00:31:44;;;;;;;25.83;22.90;;;;;;;0.85;100.00;98815.34;5051767;28;20226;-66
2023/02/12 00:34:12;;;;;;;25.60;22.83;;;;;;;0.80;100.00;98824.34;5068664;28;20205;-63
2023/02/12 00:36:40;;;;;;;29.07;23.30;;;;;;;0.82;100.00;98823.34;5041707;28;20207;-65
2023/02/12 00:39:10;;;;;;;27.07;23.60;;;;;;;0.81;100.00;98821.66;5069713;28;20233;-64
2023/02/12 00:41:39;;;;;;;26.60;23.30;;;;;;;0.85;100.00;98832.78;5062529;28;20203;-64
2023/02/12 00:44:06;;;;;;;25.53;22.67;;;;;;;0.85;100.00;98825.78;5020849;28;20217;-62
2023/02/12 00:46:34;;;;;;;25.57;22.53;;;;;;;0.91;100.00;98828.97;5051728;28;20450;-62
2023/02/12 00:49:01;;;;;;;26.00;23.17;;;;;;;0.92;100.00;98835.88;5066899;28;20721;-63
2023/02/12 00:51:29;;;;;;;26.57;23.17;;;;;;;0.92;100.00;98830.66;5022823;28;20500;-63
2023/02/12 00:53:57;;;;;;;25.30;22.53;;;;;;;0.93;100.00;98833.22;5067213;28;20529;-62
2023/02/12 00:56:24;;;;;;;28.73;24.10;;;;;;;0.96;100.00;98840.88;5066794;28;20210;-62
2023/02/12 00:58:53;;;;;;;29.10;23.53;;;;;;;0.98;100.00;98839.00;5042871;28;20248;-62
2023/02/12 01:01:21;;;;;;;29.53;24.53;;;;;;;0.94;100.00;98842.72;5068574;28;20249;-62
2023/02/12 01:03:48;;;;;;;26.90;23.70;;;;;;;0.99;100.00;98839.88;5048636;28;20858;-62
2023/02/12 01:06:16;;;;;;;30.13;25.10;;;;;;;0.93;100.00;98851.47;5016066;28;20637;-62
2023/02/12 01:08:43;;;;;;;26.90;23.17;;;;;;;0.97;100.00;98844.34;5063852;28;20209;-62
2023/02/12 01:11:13;;;;;;;27.73;23.23;;;;;;;1.02;100.00;98852.75;5063921;28;20225;-62
2023/02/12 01:13:40;;;;;;;29.77;24.07;;;;;;;0.89;100.00;98852.56;5066432;28;20208;-62
2023/02/12 01:16:14;;;;;;;30.53;27.30;;;;;;;0.91;100.00;98850.72;5068461;28;20194;-62
2023/02/12 01:18:42;;;;;;;29.37;26.37;;;;;;;0.92;100.00;98854.16;5043159;28;20503;-61
2023/02/12 01:21:11;;;;;;;27.27;24.40;;;;;;;0.86;100.00;98858.78;5014145;28;20746;-62
2023/02/12 01:23:38;;;;;;;27.20;23.93;;;;;;;0.92;100.00;98849.78;5063035;28;20586;-61
2023/02/12 01:26:09;;;;;;;26.30;23.37;;;;;;;0.90;100.00;98854.25;5067033;28;20786;-62
2023/02/12 01:28:37;;;;;;;29.97;24.30;;;;;;;0.81;100.00;98841.69;5065474;28;20226;-63
2023/02/12 01:31:10;;;;;;;27.13;24.23;;;;;;;0.88;100.00;98845.66;5044488;28;20226;-64
2023/02/12 01:33:37;;;;;;;28.33;23.70;;;;;;;0.81;100.00;98844.31;5047689;28;20205;-63
2023/02/12 01:36:06;;;;;;;26.63;22.60;;;;;;;0.89;100.00;98852.56;5019608;28;21264;-64
2023/02/12 01:38:34;;;;;;;31.37;23.50;;;;;;;0.89;100.00;98852.56;5065838;28;20194;-65
2023/02/12 01:41:03;;;;;;;25.47;22.77;;;;;;;0.95;100.00;98848.78;5068574;28;20281;-67
2023/02/12 01:43:30;;;;;;;25.53;21.83;;;;;;;0.90;100.00;98853.38;5054538;28;20206;-66
2023/02/12 01:46:00;;;;;;;26.17;23.00;;;;;;;0.90;100.00;98848.16;5070357;28;20229;-67
2023/02/12 01:48:32;;;;;;;27.43;23.80;;;;;;;0.92;100.00;98851.53;5049569;28;20334;-63
2023/02/12 01:51:02;;;;;;;27.77;23.20;;;;;;;0.79;100.00;98854.81;5070438;28;20194;-65
2023/02/12 01:53:33;;;;;;;27.77;23.73;;;;;;;0.80;100.00;98858.28;5020688;28;20202;-66
2023/02/12 01:56:01;;;;;;;27.33;23.23;;;;;;;0.72;100.00;98854.28;5070839;28;20582;-65
2023/02/12 01:58:33;;;;;;;27.10;23.17;;;;;;;0.75;100.00;98848.06;5066249;28;20398;-66
2023/02/12 02:01:02;;;;;;;29.50;23.03;;;;;;;0.81;100.00;98857.34;5071261;28;20202;-65
2023/02/12 02:03:32;;;;;;;28.43;23.57;;;;;;;0.82;100.00;98865.09;5044428;28;21859;-65
2023/02/12 02:06:01;;;;;;;26.03;23.10;;;;;;;0.89;100.00;98863.00;5068621;28;20348;-64
2023/02/12 02:08:29;;;;;;;25.90;23.10;;;;;;;0.80;100.00;98866.94;5017135;28;20217;-65
2023/02/12 02:10:56;;;;;;;25.00;22.33;;;;;;;0.81;100.00;98871.22;5071628;28;20621;-66
2023/02/12 02:16:15;;;;;;;25.87;22.13;;;;;;;0.89;100.00;98867.38;5063230;28;20212;-63
2023/02/12 02:18:50;;;;;;;26.00;23.13;;;;;;;0.85;100.00;98864.91;5070296;28;20391;-65
2023/02/12 02:21:51;;;;;;;26.93;21.93;;;;;;;0.87;100.00;98862.25;5049794;28;20226;-63
2023/02/12 02:25:00;;;;;;;28.20;22.20;;;;;;;0.88;100.00;98863.94;5022649;28;20223;-63
2023/02/12 02:27:36;;;;;;;25.97;21.47;;;;;;;0.86;100.00;98858.78;5026447;28;20237;-64
2023/02/12 02:30:23;;;;;;;25.27;22.17;;;;;;;0.90;100.00;98856.00;5069371;28;20610;-65
2023/02/12 02:32:56;;;;;;;25.77;21.17;;;;;;;0.94;100.00;98857.53;5065289;28;20229;-66
2023/02/12 02:35:28;;;;;;;25.90;21.80;;;;;;;0.92;100.00;98856.75;5050518;28;20293;-63
2023/02/12 02:38:03;;;;;;;24.30;20.87;;;;;;;0.91;100.00;98852.47;5068512;28;20190;-64
2023/02/12 02:40:35;;;;;;;26.47;22.57;;;;;;;0.85;100.00;98851.88;5021660;28;20614;-64
2023/02/12 02:43:06;;;;;;;25.53;22.73;;;;;;;0.85;100.00;98857.09;5070509;28;20237;-66
2023/02/12 02:45:38;;;;;;;24.07;21.47;;;;;;;0.84;100.00;98860.63;5064628;28;20328;-63
2023/02/12 02:48:10;;;;;;;23.60;21.10;;;;;;;0.84;100.00;98854.59;5070687;28;20522;-63
2023/02/12 02:50:41;;;;;;;25.27;21.70;;;;;;;0.89;100.00;98864.75;5072383;28;20380;-66
2023/02/12 02:53:12;;;;;;;26.43;22.63;;;;;;;0.86;100.00;98866.59;5045732;28;20975;-63
2023/02/12 02:55:43;;;;;;;27.40;22.30;;;;;;;0.94;100.00;98870.56;5026176;28;20634;-66
2023/02/12 02:58:14;;;;;;;27.77;23.87;;;;;;;0.93;100.00;98861.06;5071467;28;20205;-63
2023/02/12 03:00:46;;;;;;;25.70;22.97;;;;;;;0.98;100.00;98859.91;5068081;28;20809;-63
2023/02/12 03:03:18;;;;;;;26.23;23.07;;;;;;;0.99;100.00;98865.97;5069308;28;20202;-63
2023/02/12 03:05:49;;;;;;;26.30;23.43;;;;;;;1.01;100.00;98866.75;5071856;28;20203;-63
2023/02/12 03:08:22;;;;;;;26.03;22.40;;;;;;;0.99;100.00;98866.81;5044247;28;20636;-63
2023/02/12 03:10:53;;;;;;;28.83;22.17;;;;;;;0.99;100.00;98873.81;5017897;28;20209;-65
2023/02/12 03:13:23;;;;;;;26.47;22.67;;;;;;;0.90;100.00;98872.53;5070691;28;20288;-62
2023/02/12 03:15:54;;;;;;;26.77;22.73;;;;;;;0.86;100.00;98873.59;5068699;28;20357;-66
2023/02/12 03:18:25;;;;;;;30.00;24.67;;;;;;;0.80;100.00;98877.38;5068368;28;20202;-63
2023/02/12 03:20:55;;;;;;;27.23;23.60;;;;;;;0.73;100.00;98878.63;5069813;28;20202;-65
2023/02/12 03:23:25;;;;;;;28.27;24.10;;;;;;;0.70;100.00;98886.63;5037498;28;20206;-63
2023/02/12 03:25:56;;;;;;;31.27;24.70;;;;;;;0.72;100.00;98895.19;5023222;28;20384;-66
2023/02/12 03:28:27;;;;;;;31.93;24.53;;;;;;;0.67;100.00;98895.44;5070190;28;20228;-63
2023/02/12 03:31:08;;;;;;;29.83;23.63;;;;;;;0.63;100.00;98891.28;5071467;28;20333;-65
2023/02/12 03:33:42;;;;;;;29.27;24.60;;;;;;;0.63;100.00;98893.06;5064141;28;20317;-65
2023/02/12 03:36:19;;;;;;;27.80;23.73;;;;;;;0.59;100.00;98892.38;5065160;28;20480;-64
2023/02/12 03:38:49;;;;;;;30.07;24.90;;;;;;;0.66;100.00;98900.75;5062322;28;20206;-66
2023/02/12 03:41:21;;;;;;;30.80;25.53;;;;;;;0.68;100.00;98898.91;5044084;28;20240;-63
2023/02/12 03:43:51;;;;;;;30.47;25.90;;;;;;;0.69;100.00;98903.19;5057023;28;20222;-64
2023/02/12 03:46:23;;;;;;;28.57;25.57;;;;;;;0.73;100.00;98902.09;5068978;28;20466;-63
2023/02/12 03:48:59;;;;;;;28.27;24.97;;;;;;;0.71;100.00;98902.16;5063201;28;20229;-65
2023/02/12 03:51:30;;;;;;;29.93;25.27;;;;;;;0.72;100.00;98903.84;5043379;28;20226;-63
2023/02/12 03:53:58;;;;;;;28.50;25.00;;;;;;;0.77;100.00;98906.25;5065474;28;20237;-63
2023/02/12 03:56:31;;;;;;;31.57;25.37;;;;;;;0.77;100.00;98903.63;5027695;28;20210;-63
2023/02/12 03:58:59;;;;;;;27.23;23.50;;;;;;;0.78;100.00;98899.28;5071270;28;20716;-65
2023/02/12 04:01:28;;;;;;;28.43;24.20;;;;;;;0.78;100.00;98902.72;5060669;28;20249;-62
2023/02/12 04:03:56;;;;;;;24.97;22.27;;;;;;;0.82;100.00;98901.63;5067541;28;20375;-65
2023/02/12 04:06:27;;;;;;;27.80;24.80;;;;;;;0.68;100.00;98891.91;5055604;28;20319;-63
2023/02/12 04:08:59;;;;;;;27.97;24.33;;;;;;;0.74;100.00;98902.94;5072645;28;20263;-66
2023/02/12 04:11:30;;;;;;;28.23;24.83;;;;;;;0.80;100.00;98902.63;5065132;28;20231;-63
2023/02/12 04:14:11;;;;;;;28.07;24.60;;;;;;;0.77;100.00;98906.25;5025151;28;20209;-64
2023/02/12 04:16:44;;;;;;;30.03;25.90;;;;;;;0.69;100.00;98904.00;5073140;28;20398;-64
2023/02/12 04:19:16;;;;;;;27.27;24.00;;;;;;;0.64;100.00;98897.38;5068215;28;20277;-62
2023/02/12 04:21:53;;;;;;;29.43;24.37;;;;;;;0.71;100.00;98910.00;5069670;28;20871;-63
2023/02/12 04:24:28;;;;;;;32.37;24.93;;;;;;;0.76;100.00;98917.59;5053494;28;20411;-62
2023/02/12 04:27:01;;;;;;;32.27;25.60;;;;;;;0.80;100.00;98919.13;5072111;28;20240;-65
2023/02/12 04:29:33;;;;;;;32.93;25.10;;;;;;;0.83;100.00;98918.13;5026616;28;20202;-66
2023/02/12 04:32:05;;;;;;;29.20;25.30;;;;;;;0.86;100.00;98923.19;5064313;28;20228;-66
2023/02/12 04:34:35;;;;;;;28.43;24.07;;;;;;;0.81;100.00;98927.81;5066143;28;20202;-65
2023/02/12 04:37:06;;;;;;;31.50;26.10;;;;;;;0.82;100.00;98925.09;5067662;28;20221;-65
2023/02/12 04:39:36;;;;;;;29.40;25.70;;;;;;;0.79;100.00;98927.06;5052425;28;20462;-63
2023/02/12 04:42:04;;;;;;;29.33;26.07;;;;;;;0.70;100.00;98936.19;5069021;28;20308;-65
2023/02/12 04:44:34;;;;;;;30.40;26.77;;;;;;;0.67;100.00;98936.34;5024019;28;20199;-65
2023/02/12 04:47:03;;;;;;;30.67;26.20;;;;;;;0.65;100.00;98930.38;5069164;28;20197;-65
2023/02/12 04:49:31;;;;;;;31.57;26.43;;;;;;;0.64;100.00;98934.72;5070944;28;20717;-65
2023/02/12 04:51:58;;;;;;;40.00;24.80;;;;;;;0.66;100.00;98948.53;5062701;28;20223;-65
2023/02/12 04:54:26;;;;;;;34.27;26.07;;;;;;;0.64;100.00;98939.94;5049576;28;20594;-62
2023/02/12 04:56:53;;;;;;;30.80;24.50;;;;;;;0.62;100.00;98943.56;5068341;28;20211;-64
2023/02/12 04:59:21;;;;;;;29.67;25.80;;;;;;;0.62;100.00;98940.94;5022254;28;20218;-62
2023/02/12 05:01:48;;;;;;;30.80;25.60;;;;;;;0.59;100.00;98947.16;5075300;28;20729;-62
2023/02/12 05:04:18;;;;;;;32.50;26.13;;;;;;;0.56;100.00;98942.09;5071094;28;20221;-62
2023/02/12 05:06:46;;;;;;;33.73;26.20;;;;;;;0.59;100.00;98946.31;5071769;28;20221;-64
2023/02/12 05:09:15;;;;;;;32.87;27.33;;;;;;;0.57;100.00;98943.78;5047334;28;20229;-62
2023/02/12 05:11:43;;;;;;;32.10;26.17;;;;;;;0.56;100.00;98945.53;5069017;28;20214;-64
2023/02/12 05:14:11;;;;;;;34.43;27.20;;;;;;;0.52;100.00;98951.81;5025140;28;20214;-62
2023/02/12 05:16:38;;;;;;;29.03;24.20;;;;;;;0.59;100.00;98946.31;5063100;28;20596;-63
2023/02/12 05:19:08;;;;;;;29.17;23.77;;;;;;;0.47;100.00;98946.00;5077090;28;20310;-65
2023/02/12 05:21:37;;;;;;;31.13;24.97;;;;;;;0.48;100.00;98945.06;5065367;28;20825;-62
2023/02/12 05:24:05;;;;;;;29.53;25.07;;;;;;;0.42;100.00;98946.25;5071792;28;20313;-66
2023/02/12 05:26:33;;;;;;;29.03;25.43;;;;;;;0.41;100.00;98930.66;5047829;28;20390;-66
2023/02/12 05:29:02;;;;;;;32.33;25.97;;;;;;;0.36;100.00;98943.09;5074264;28;20224;-65
2023/02/12 05:31:29;;;;;;;29.03;25.23;;;;;;;0.34;100.00;98950.16;5018449;28;20792;-64
2023/02/12 05:33:57;;;;;;;29.20;24.33;;;;;;;0.40;100.00;98952.44;5069954;28;20543;-65
2023/02/12 05:36:25;;;;;;;31.13;25.63;;;;;;;0.36;100.00;98953.53;5063882;28;20878;-62
2023/02/12 05:38:58;;;;;;;32.73;26.23;;;;;;;0.46;100.00;98959.13;5071577;28;20195;-65
2023/02/12 05:41:25;;;;;;;31.83;25.93;;;;;;;0.44;100.00;98953.97;5057007;28;20237;-63
2023/02/12 05:43:53;;;;;;;29.57;24.07;;;;;;;0.39;100.00;98941.19;5068399;28;20226;-65
2023/02/12 05:46:21;;;;;;;33.37;25.83;;;;;;;0.40;100.00;98953.31;5018890;28;20202;-63
2023/02/12 05:48:49;;;;;;;28.57;24.33;;;;;;;0.38;100.00;98949.94;5074565;28;20222;-64
2023/02/12 05:51:20;;;;;;;27.83;24.70;;;;;;;0.25;100.00;98941.88;5068621;28;20234;-63
2023/02/12 05:53:49;;;;;;;29.03;24.47;;;;;;;0.24;100.00;98955.81;5073701;28;20584;-66
2023/02/12 05:56:20;;;;;;;30.03;25.00;;;;;;;0.32;100.00;98959.81;5059805;28;20226;-63
2023/02/12 05:58:53;;;;;;;33.20;27.00;;;;;;;0.38;100.00;98969.94;5070992;28;20237;-66
2023/02/12 06:01:22;;;;;;;37.03;29.90;;;;;;;0.38;100.00;98962.13;5025084;28;20218;-64
2023/02/12 06:03:50;;;;;;;32.20;27.37;;;;;;;0.41;100.00;98967.19;5072869;28;20220;-65
2023/02/12 06:06:17;;;;;;;40.57;29.00;;;;;;;0.51;100.00;98964.97;5073262;28;20292;-63
2023/02/12 06:08:47;;;;;;;35.27;28.20;;;;;;;0.54;100.00;98965.63;5076039;28;20234;-65
2023/02/12 06:11:16;;;;;;;38.97;28.50;;;;;;;0.56;100.00;98969.00;5062701;28;20291;-63
2023/02/12 06:13:45;;;;;;;41.77;31.93;;;;;;;0.57;100.00;98972.47;5065944;28;20299;-67
2023/02/12 06:16:19;;;;;;;46.93;33.07;;;;;;;0.62;100.00;98975.69;4996579;28;20223;-66
2023/02/12 06:18:47;;;;;;;41.87;32.97;;;;;;;0.60;100.00;98979.31;5070936;28;20186;-65
2023/02/12 06:21:15;;;;;;;48.87;32.23;;;;;;;0.61;100.00;98978.41;5064202;28;20455;-64
2023/02/12 06:23:43;;;;;;;42.57;31.33;;;;;;;0.51;100.00;98971.00;5074854;28;20201;-66
2023/02/12 06:26:11;;;;;;;39.90;29.87;;;;;;;0.54;100.00;98976.06;5064188;28;20201;-63
2023/02/12 06:28:38;;;;;;;47.60;31.13;;;;;;;0.50;100.00;98984.97;5050743;28;20229;-63
2023/02/12 06:31:17;;;;;;;34.70;27.87;;;;;;;0.44;100.00;98990.50;5011994;28;20753;-64
2023/02/12 06:33:45;;;;;;;36.27;27.33;;;;;;;0.43;100.00;98988.81;5064157;28;20924;-64
2023/02/12 06:36:12;;;;;;;36.63;29.60;;;;;;;0.46;100.00;98993.88;5056904;28;20304;-63
2023/02/12 06:38:40;;;;;;;38.73;28.43;;;;;;;0.52;100.00;99003.16;5068048;28;20197;-64
2023/02/12 06:41:07;;;;;;;33.37;29.07;;;;;;;0.45;100.00;99009.63;5046713;28;20208;-63
2023/02/12 06:43:35;;;;;;;37.97;28.13;;;;;;;0.42;100.00;98990.59;5048160;28;20456;-65
2023/02/12 06:46:04;;;;;;;34.60;28.17;;;;;;;0.51;100.00;99002.31;5041778;28;20228;-63
2023/02/12 06:48:33;;;;;;;34.97;31.20;;;;;;;0.61;100.00;99017.53;5055261;28;20254;-64
2023/02/12 06:51:05;;;;;;;40.87;31.77;;;;;;;0.63;100.00;99016.53;5064163;28;20206;-62
2023/02/12 06:53:34;;;;;;;36.20;31.23;;;;;;;0.63;100.00;99018.31;5066409;28;20693;-65
2023/02/12 06:56:02;;;;;;;37.60;32.13;;;;;;;0.72;100.00;99015.22;5044041;28;20507;-66
2023/02/12 06:58:30;;;;;;;32.17;27.93;;;;;;;0.72;100.00;99021.28;5020111;28;20855;-67
2023/02/12 07:01:09;;;;;;;35.50;29.37;;;;;;;0.65;100.00;99000.81;5049712;28;20225;-61
2023/02/12 07:03:39;;;;;;;37.90;27.93;;;;;;;0.67;100.00;99014.63;5050660;28;20495;-65
2023/02/12 07:06:07;;;;;;;37.20;28.63;;;;;;;0.60;100.00;99005.41;5069430;28;20198;-63
2023/02/12 07:08:34;;;;;;;41.20;29.50;;;;;;;0.63;100.00;99021.72;5063123;28;20225;-64
2023/02/12 07:11:02;;;;;;;41.33;31.03;;;;;;;0.67;100.00;99014.63;5063773;28;20210;-67
2023/02/12 07:13:29;;;;;;;35.97;26.90;;;;;;;0.60;100.00;99015.84;5048164;28;20208;-63
2023/02/12 07:15:57;;;;;;;35.20;28.10;;;;;;;0.61;100.00;99014.91;5062862;28;20199;-65
2023/02/12 07:18:25;;;;;;;36.97;28.73;;;;;;;0.71;100.00;99013.53;5005869;28;20233;-63
2023/02/12 07:20:56;;;;;;;46.87;32.73;;;;;;;0.84;100.00;99017.22;5045838;28;20212;-65
2023/02/12 07:23:23;;;;;;;40.63;29.87;;;;;;;0.96;100.00;99014.94;5056791;28;20198;-62
2023/02/12 07:25:55;;;;;;;50.50;36.13;;;;;;;1.06;100.00;99029.19;5065014;28;20210;-65
2023/02/12 07:28:23;;;;;;;48.23;36.00;;;;;;;1.18;100.00;99025.13;5062902;28;20222;-62
2023/02/12 07:30:51;;;;;;;52.47;36.27;;;;;;;1.27;100.00;99026.38;5053524;28;20211;-64
2023/02/12 07:33:19;;;;;;;52.37;36.83;;;;;;;1.17;100.00;99023.44;5012392;28;20221;-62
2023/02/12 07:35:46;;;;;;;46.70;32.50;;;;;;;1.14;100.00;99019.19;5061526;28;20218;-63
2023/02/12 07:38:15;;;;;;;41.50;31.60;;;;;;;1.04;100.00;99028.44;5062872;28;20716;-62
2023/02/12 07:40:43;;;;;;;41.03;31.03;;;;;;;1.10;100.00;99028.09;5061551;28;20195;-64
2023/02/12 07:43:10;;;;;;;42.83;33.27;;;;;;;1.14;100.00;99027.03;5055969;28;20210;-62
2023/02/12 07:45:38;;;;;;;43.97;36.30;;;;;;;1.09;100.00;99028.16;5032101;28;20202;-64
2023/02/12 07:48:06;;;;;;;48.53;38.20;;;;;;;1.14;100.00;99027.03;5068661;28;20199;-64
2023/02/12 07:50:34;;;;;;;41.77;34.53;;;;;;;1.14;100.00;99026.19;5022415;28;20215;-63
2023/02/12 07:53:01;;;;;;;37.97;33.83;;;;;;;1.08;100.00;99027.34;5076842;28;20229;-65
2023/02/12 07:55:30;;;;;;;36.43;30.57;;;;;;;1.23;100.00;99025.72;5043518;28;20930;-62
2023/02/12 07:57:57;;;;;;;35.97;30.50;;;;;;;1.38;100.00;99018.00;5058042;28;20195;-60
2023/02/12 08:00:25;;;;;;;40.00;31.20;;;;;;;1.50;100.00;99021.72;5032410;28;20214;-62
2023/02/12 08:02:53;;;;;;;38.07;32.87;;;;;;;1.55;100.00;99020.56;5056327;28;20222;-64
2023/02/12 08:05:21;;;;;;;46.47;37.90;;;;;;;1.66;100.00;99022.59;5009943;28;20956;-62
2023/02/12 08:07:49;;;;;;;53.20;43.00;;;;;;;1.63;100.00;99022.75;5051132;28;20195;-63
2023/02/12 08:10:21;;;;;;;44.07;34.23;;;;;;;1.50;100.00;99019.13;5022175;28;20241;-62
2023/02/12 08:12:50;;;;;;;39.47;32.13;;;;;;;1.69;100.00;99021.59;5049069;28;20238;-64
2023/02/12 08:15:17;;;;;;;38.17;31.77;;;;;;;1.75;100.00;99028.28;5056666;28;20208;-61
2023/02/12 08:17:45;;;;;;;38.93;30.37;;;;;;;2.02;100.00;99031.16;5032173;28;20950;-64
2023/02/12 08:20:13;;;;;;;36.83;29.37;;;;;;;2.09;100.00;99029.88;5010306;28;20203;-62
2023/02/12 08:22:40;;;;;;;41.47;31.37;;;;;;;2.05;100.00;99017.91;5046936;28;20214;-64
2023/02/12 08:25:08;;;;;;;37.57;29.07;;;;;;;2.13;100.00;99027.97;5052958;28;20668;-63
2023/02/12 08:27:36;;;;;;;36.87;31.57;;;;;;;2.13;100.00;99026.16;5033236;28;20209;-65
2023/02/12 08:30:05;;;;;;;41.57;31.33;;;;;;;2.02;100.00;99024.13;5051983;28;20226;-65
2023/02/12 08:32:33;;;;;;;39.57;30.20;;;;;;;2.05;100.00;99027.50;5021411;28;20234;-66
2023/02/12 08:35:00;;;;;;;39.13;29.90;;;;;;;2.13;100.00;99025.34;5050523;28;20203;-64
2023/02/12 08:37:28;;;;;;;39.20;29.90;;;;;;;2.15;100.00;99028.72;5007224;28;20219;-65
2023/02/12 08:39:55;;;;;;;42.20;31.50;;;;;;;2.17;100.00;99027.69;5054427;28;20775;-64
2023/02/12 08:42:24;;;;;;;38.57;31.20;;;;;;;2.06;100.00;99027.44;5034881;28;20230;-62
2023/02/12 08:44:52;;;;;;;43.13;32.80;;;;;;;2.10;100.00;99031.56;5057089;28;20207;-63
2023/02/12 08:47:21;;;;;;;45.30;32.97;;;;;;;2.09;100.00;99023.81;5038542;28;22024;-62
2023/02/12 08:49:48;;;;;;;46.63;35.70;;;;;;;2.27;100.00;99027.16;5049992;28;20219;-64
2023/02/12 08:52:18;;;;;;;46.10;34.63;;;;;;;2.43;100.00;99024.53;5011987;28;20224;-62
2023/02/12 08:54:45;;;;;;;45.87;33.73;;;;;;;2.67;100.00;99024.94;5060429;28;20203;-65
2023/02/12 08:57:13;;;;;;;48.07;36.40;;;;;;;2.84;100.00;99026.56;5050678;28;20194;-63
2023/02/12 08:59:40;;;;;;;48.60;34.30;;;;;;;3.14;100.00;99014.38;5066060;28;20217;-63
2023/02/12 09:02:09;;;;;;;43.67;32.40;;;;;;;3.09;100.00;99008.56;5072168;28;20856;-64
2023/02/12 09:04:39;;;;;;;49.50;35.57;;;;;;;3.30;100.00;99032.63;5049776;28;20202;-65
2023/02/12 09:07:07;;;;;;;42.83;32.60;;;;;;;3.27;100.00;99031.03;5030127;28;20693;-64
2023/02/12 09:09:37;;;;;;;41.90;31.93;;;;;;;3.38;100.00;99019.91;5063318;28;20629;-65
2023/02/12 09:12:05;;;;;;;39.00;31.23;;;;;;;3.54;100.00;99025.06;5067660;28;20719;-66
2023/02/12 09:14:33;;;;;;;40.53;33.03;;;;;;;3.60;100.00;99024.69;5053912;28;20631;-65
2023/02/12 09:17:00;;;;;;;37.93;31.30;;;;;;;3.85;100.00;99030.19;5061728;28;20203;-63
2023/02/12 09:19:28;;;;;;;41.47;33.90;;;;;;;3.88;100.00;99025.59;5054108;28;20752;-63
2023/02/12 09:22:00;;;;;;;43.03;33.93;;;;;;;3.87;100.00;99026.53;5038763;28;20500;-64
2023/02/12 09:24:28;;;;;;;45.07;33.63;;;;;;;4.02;100.00;99026.50;5043383;28;20242;-61
2023/02/12 09:26:55;;;;;;;44.57;32.53;;;;;;;3.91;100.00;99024.56;5044875;28;20213;-62
2023/02/12 09:29:23;;;;;;;39.27;30.87;;;;;;;3.99;100.00;99017.06;5026881;28;21207;-61
2023/02/12 09:31:50;;;;;;;34.67;28.43;;;;;;;3.97;100.00;99025.97;5065791;28;20417;-64
2023/02/12 09:34:18;;;;;;;40.20;30.23;;;;;;;4.07;100.00;99016.56;5060508;28;20209;-62
2023/02/12 09:36:46;;;;;;;35.67;29.07;;;;;;;4.23;100.00;99028.72;5048740;28;20263;-64
2023/02/12 09:39:15;;;;;;;35.77;30.77;;;;;;;4.24;100.00;99023.34;5021691;28;20222;-63
2023/02/12 09:41:54;;;;;;;36.60;28.97;;;;;;;4.33;100.00;99025.38;5067846;28;20366;-64
2023/02/12 09:44:22;;;;;;;35.13;28.30;;;;;;;4.30;100.00;99022.97;5032117;28;20210;-59
2023/02/12 09:46:53;;;;;;;32.93;25.67;;;;;;;4.45;100.00;99028.19;5069196;28;20195;-64
2023/02/12 09:49:32;;;;;;;34.40;25.33;;;;;;;4.49;100.00;99019.16;5064382;28;20489;-62
2023/02/12 09:52:00;;;;;;;33.87;26.83;;;;;;;4.68;100.00;99021.41;5046506;28;20231;-64
2023/02/12 09:54:34;;;;;;;30.07;23.97;;;;;;;4.67;100.00;99018.88;4999431;28;20222;-61
2023/02/12 09:57:06;;;;;;;27.83;22.13;;;;;;;4.56;100.00;99028.31;5065950;28;20214;-62
2023/02/12 09:59:36;;;;;;;27.53;22.40;;;;;;;4.71;100.00;99029.09;5046321;28;20586;-62
2023/02/12 10:02:06;;;;;;;28.93;23.40;;;;;;;4.91;100.00;99011.16;5047471;28;20229;-62
2023/02/12 10:04:34;;;;;;;29.03;23.50;;;;;;;4.83;100.00;99022.19;5069710;28;20566;-61
2023/02/12 10:07:06;;;;;;;31.80;25.73;;;;;;;4.95;100.00;99023.16;5036619;28;20238;-64
2023/02/12 10:09:57;;;;;;;28.00;22.77;;;;;;;5.01;100.00;99014.00;5020138;28;20508;-61
2023/02/12 10:12:30;;;;;;;31.20;25.97;;;;;;;5.23;100.00;99016.03;5066385;28;20214;-61
2023/02/12 10:15:24;;;;;;;28.53;23.27;;;;;;;5.40;100.00;99014.88;5068872;28;20210;-62
2023/02/12 10:17:57;;;;;;;25.50;20.73;;;;;;;5.37;100.00;99009.81;5054972;28;20823;-65
2023/02/12 10:20:51;;;;;;;26.97;21.33;;;;;;;5.70;100.00;99007.59;5058669;28;20203;-61
2023/02/12 10:23:47;;;;;;;25.80;21.57;;;;;;;5.72;100.00;99010.97;5038852;28;20221;-61
2023/02/12 10:26:20;;;;;;;24.77;19.23;;;;;;;5.75;100.00;99008.09;5059587;28;20202;-64
2023/02/12 10:28:49;;;;;;;23.43;20.17;;;;;;;5.96;100.00;99008.38;5068763;28;20551;-64
2023/02/12 10:31:22;;;;;;;21.97;19.30;;;;;;;5.50;100.00;99009.81;5074177;28;20232;-62
2023/02/12 10:33:51;;;;;;;24.43;20.23;;;;;;;5.54;100.00;99013.09;5058093;28;20400;-64
2023/02/12 10:36:31;;;;;;;22.00;19.57;;;;;;;5.64;100.00;99011.50;5048826;28;20636;-62
2023/02/12 10:39:02;;;;;;;25.53;19.80;;;;;;;5.68;100.00;99014.72;5003182;28;20759;-64
2023/02/12 10:41:32;;;;;;;21.83;19.53;;;;;;;5.65;100.00;99010.53;5058211;28;20211;-61
2023/02/12 10:44:00;;;;;;;25.70;19.53;;;;;;;5.79;100.00;99009.56;5049345;28;20206;-63
2023/02/12 10:46:30;;;;;;;24.13;19.20;;;;;;;6.00;100.00;99009.84;5065874;28;20947;-64
2023/02/12 10:48:58;;;;;;;21.10;18.23;;;;;;;6.14;100.00;99005.38;5052545;28;20652;-64
2023/02/12 10:51:43;;;;;;;22.37;17.60;;;;;;;6.35;100.00;98992.47;5030953;28;20239;-62
2023/02/12 10:54:34;;;;;;;23.67;21.17;;;;;;;6.33;100.00;99003.13;5040476;28;20210;-61
2023/02/12 10:57:10;;;;;;;21.97;16.00;;;;;;;6.27;100.00;99010.63;5073313;28;20207;-64
2023/02/12 10:59:37;;;;;;;18.97;17.07;;;;;;;6.11;100.00;99001.22;5063809;28;20241;-65
2023/02/12 11:02:26;;;;;;;21.53;17.43;;;;;;;6.12;100.00;99000.25;5067686;28;20506;-63
2023/02/12 11:04:55;;;;;;;21.13;18.50;;;;;;;6.07;100.00;99005.00;5036848;28;20717;-65
2023/02/12 11:07:23;;;;;;;21.43;17.77;;;;;;;6.22;100.00;99006.53;5048842;28;20221;-62
2023/02/12 11:09:53;;;;;;;22.77;19.80;;;;;;;6.53;100.00;99000.78;4992305;28;20210;-62
2023/02/12 11:12:30;;;;;;;18.53;16.60;;;;;;;7.19;100.00;98997.63;5061458;28;20230;-64
2023/02/12 11:14:59;;;;;;;21.17;18.50;;;;;;;7.50;96.91;98994.41;5061968;28;20209;-63
2023/02/12 11:17:32;;;;;;;17.30;15.53;;;;;;;7.36;94.31;98987.56;5065694;28;20201;-63
2023/02/12 11:20:23;;;;;;;20.50;17.33;;;;;;;7.48;94.17;98991.06;5043099;28;20265;-64
2023/02/12 11:22:56;;;;;;;17.47;14.80;;;;;;;7.57;93.36;98985.06;5046727;28;20218;-62
2023/02/12 11:25:25;;;;;;;17.90;16.00;;;;;;;7.63;91.43;98987.25;5048321;28;20218;-61
2023/02/12 11:28:14;;;;;;;16.37;14.67;;;;;;;7.58;90.89;98988.56;5022451;28;20214;-62
2023/02/12 11:30:50;;;;;;;13.70;12.30;;;;;;;7.39;91.01;98985.56;5071098;28;20736;-62
2023/02/12 11:33:24;;;;;;;15.93;14.33;;;;;;;7.31;91.15;98984.47;5066802;28;20257;-62
2023/02/12 11:35:53;;;;;;;13.07;11.67;;;;;;;7.27;90.69;98978.59;5048104;28;20209;-62